Time;durP1;ratioP1;P1;durP2;ratioP2;P2;SDS_P1;SDS_P2;PMS_P1;PMS_P2;Temp;Humidity;BMP_temperature;BMP_pressure;BME280_temperature;BME280_humidity;BME280_pressure;Samples;Min_cycle;Max_cycle;Signal;HPM_P1;HPM_P2
2022/05/18 00:01:22;;;;;;;6.87;2.93;;;;;;;21.40;57.71;101018.84;4913443;29;20220;-71
2022/05/18 00:03:52;;;;;;;9.10;3.13;;;;;;;21.33;58.00;101006.38;4915453;29;20535;-71
2022/05/18 00:06:19;;;;;;;7.17;2.40;;;;;;;21.30;57.93;101006.78;4910741;29;20686;-71
2022/05/18 00:08:47;;;;;;;6.00;3.07;;;;;;;21.27;58.65;101012.59;4908994;29;20836;-71
2022/05/18 00:11:18;;;;;;;5.50;3.00;;;;;;;21.25;58.57;101009.28;4910552;29;20210;-71
2022/05/18 00:13:47;;;;;;;9.20;3.53;;;;;;;21.22;58.80;101007.81;4914409;29;20228;-71
2022/05/18 00:16:17;;;;;;;6.60;2.90;;;;;;;21.19;58.55;101010.94;4912837;29;20243;-71
2022/05/18 00:18:47;;;;;;;7.67;3.13;;;;;;;21.08;59.23;101014.19;4915335;29;20268;-71
2022/05/18 00:21:15;;;;;;;5.77;2.97;;;;;;;21.04;58.97;101012.91;4917172;29;20210;-71
2022/05/18 00:23:42;;;;;;;6.67;3.87;;;;;;;20.99;59.53;101026.19;4917169;29;20738;-71
2022/05/18 00:26:10;;;;;;;9.37;3.50;;;;;;;20.98;59.49;101021.81;4923495;29;20709;-71
2022/05/18 00:28:38;;;;;;;8.03;3.70;;;;;;;21.00;59.17;101027.84;4922138;29;20227;-71
2022/05/18 00:31:05;;;;;;;6.20;3.07;;;;;;;20.98;59.47;101019.13;4915021;29;20219;-71
2022/05/18 00:33:33;;;;;;;10.30;3.73;;;;;;;20.93;59.16;101021.63;4915193;29;20267;-71
2022/05/18 00:36:02;;;;;;;7.47;3.50;;;;;;;20.91;59.50;101023.69;4914907;29;20303;-71
2022/05/18 00:38:30;;;;;;;7.97;4.53;;;;;;;20.91;59.72;101024.50;4909435;29;20252;-71
2022/05/18 00:41:00;;;;;;;7.43;3.63;;;;;;;20.92;59.80;101022.66;4909428;29;20312;-71
2022/05/18 00:43:44;;;;;;;11.97;3.93;;;;;;;20.90;59.52;101022.00;4910126;29;20623;-71
2022/05/18 00:46:14;;;;;;;9.63;3.50;;;;;;;20.88;59.71;101024.06;4908814;29;20601;-71
2022/05/18 00:48:49;;;;;;;9.33;3.77;;;;;;;20.87;59.39;101009.75;4911124;29;20713;-71
2022/05/18 00:51:23;;;;;;;9.53;3.53;;;;;;;20.85;59.32;101016.38;4913383;29;20647;-70
2022/05/18 00:53:55;;;;;;;12.27;4.33;;;;;;;20.63;60.38;101000.34;4909369;29;20307;-70
2022/05/18 00:56:30;;;;;;;8.27;3.97;;;;;;;20.58;60.31;101000.09;4910560;29;20576;-70
2022/05/18 00:59:02;;;;;;;11.73;4.13;;;;;;;20.59;60.56;100999.06;4911709;29;20943;-70
2022/05/18 01:01:31;;;;;;;9.67;3.60;;;;;;;20.62;60.71;101009.47;4909618;29;20299;-70
2022/05/18 01:04:02;;;;;;;8.97;3.97;;;;;;;20.67;60.14;101008.03;4909129;29;20220;-70
2022/05/18 01:06:36;;;;;;;5.83;3.50;;;;;;;20.65;60.32;101001.00;4911674;29;20604;-71
2022/05/18 01:09:06;;;;;;;7.47;3.87;;;;;;;20.66;60.10;101009.91;4906905;29;20589;-70
2022/05/18 01:11:36;;;;;;;7.00;3.30;;;;;;;20.69;59.88;101009.47;4909346;29;20579;-71
2022/05/18 01:14:07;;;;;;;6.23;2.90;;;;;;;20.67;59.89;101008.03;4906860;29;20235;-71
2022/05/18 01:16:35;;;;;;;8.47;4.13;;;;;;;20.62;60.37;101006.75;4908147;29;20292;-71
2022/05/18 01:19:04;;;;;;;6.20;3.33;;;;;;;20.60;59.90;101003.44;4916664;29;20295;-71
2022/05/18 01:21:47;;;;;;;7.23;3.50;;;;;;;20.59;60.24;101001.75;4908721;29;20216;-70
2022/05/18 01:24:22;;;;;;;7.20;3.17;;;;;;;20.57;60.31;101005.72;4908160;29;20209;-70
2022/05/18 01:27:01;;;;;;;8.20;3.73;;;;;;;20.57;60.10;101005.72;4907504;29;20287;-70
2022/05/18 01:29:31;;;;;;;7.37;3.37;;;;;;;20.54;60.76;101014.19;4910078;29;20300;-70
2022/05/18 01:32:01;;;;;;;5.43;3.23;;;;;;;20.54;60.69;101011.50;4906266;29;20598;-70
2022/05/18 01:34:31;;;;;;;9.77;3.60;;;;;;;20.52;60.63;101019.78;4912989;29;20240;-70
2022/05/18 01:36:59;;;;;;;6.67;3.50;;;;;;;20.47;60.94;101010.63;4913930;29;20216;-70
2022/05/18 01:39:33;;;;;;;7.80;3.60;;;;;;;20.47;60.90;101016.03;4913031;29;20272;-70
2022/05/18 01:42:15;;;;;;;10.93;4.40;;;;;;;20.47;60.72;101016.84;4909216;29;20221;-70
2022/05/18 01:44:43;;;;;;;8.60;3.33;;;;;;;20.45;60.94;101018.06;4916895;29;20213;-70
2022/05/18 01:47:11;;;;;;;7.67;3.87;;;;;;;20.46;60.72;101020.56;4913922;29;20327;-70
2022/05/18 01:49:41;;;;;;;6.77;3.73;;;;;;;20.48;60.92;101023.91;4919292;29;20347;-70
2022/05/18 01:52:11;;;;;;;7.43;3.70;;;;;;;20.45;60.59;101029.69;4916188;29;20209;-71
2022/05/18 01:54:41;;;;;;;7.13;3.60;;;;;;;20.45;60.73;101028.84;4913305;29;20300;-70
2022/05/18 01:57:10;;;;;;;8.60;4.07;;;;;;;20.41;60.65;101035.66;4913015;29;20287;-70
2022/05/18 01:59:38;;;;;;;7.30;3.33;;;;;;;20.35;60.59;101029.22;4916525;29;20209;-70
2022/05/18 02:02:10;;;;;;;6.53;3.10;;;;;;;20.33;61.00;101028.53;4920617;29;20224;-70
2022/05/18 02:04:38;;;;;;;9.57;3.43;;;;;;;20.31;60.86;101033.31;4912471;29;20205;-70
2022/05/18 02:07:08;;;;;;;7.30;3.73;;;;;;;20.31;60.93;101040.56;4915950;29;20740;-70
2022/05/18 02:09:36;;;;;;;7.50;3.70;;;;;;;20.33;60.62;101031.22;4915832;29;20251;-70
2022/05/18 02:12:06;;;;;;;11.90;3.57;;;;;;;20.31;60.53;101027.94;4912210;29;20332;-70
2022/05/18 02:14:35;;;;;;;6.80;3.83;;;;;;;20.25;60.63;101040.31;4912997;29;20657;-70
2022/05/18 02:17:05;;;;;;;5.97;3.73;;;;;;;20.24;60.92;101043.19;4915474;29;20217;-70
2022/05/18 02:19:33;;;;;;;6.37;3.70;;;;;;;20.22;60.96;101045.28;4915779;29;20205;-70
2022/05/18 02:22:01;;;;;;;10.03;4.10;;;;;;;20.20;61.15;101040.06;4918205;29;20443;-70
2022/05/18 02:24:30;;;;;;;7.20;3.90;;;;;;;20.15;60.93;101036.28;4918632;29;20217;-70
2022/05/18 02:26:57;;;;;;;6.17;3.90;;;;;;;20.13;61.03;101035.69;4913064;29;20236;-70
2022/05/18 02:29:25;;;;;;;8.03;3.70;;;;;;;20.13;61.15;101035.69;4911080;29;20248;-70
2022/05/18 02:31:54;;;;;;;7.47;3.87;;;;;;;20.08;61.40;101038.13;4912829;29;20642;-70
2022/05/18 02:34:22;;;;;;;6.07;3.50;;;;;;;20.09;60.80;101035.22;4909950;29;20241;-70
2022/05/18 02:36:50;;;;;;;7.47;3.97;;;;;;;20.03;61.56;101040.56;4914210;29;20622;-70
2022/05/18 02:39:28;;;;;;;6.93;3.40;;;;;;;20.03;61.38;101037.88;4912458;29;20224;-70
2022/05/18 02:41:56;;;;;;;9.07;3.23;;;;;;;19.96;61.53;101037.00;4909601;29;20205;-70
2022/05/18 02:44:24;;;;;;;10.13;4.07;;;;;;;19.95;61.85;101035.34;4910357;29;20209;-70
2022/05/18 02:46:55;;;;;;;7.37;3.37;;;;;;;19.94;61.15;101037.19;4910488;29;20649;-70
2022/05/18 02:49:39;;;;;;;7.67;3.50;;;;;;;19.89;61.79;101042.31;4911896;29;20217;-70
2022/05/18 02:52:07;;;;;;;8.57;3.87;;;;;;;19.85;61.59;101041.88;4907138;29;20205;-70
2022/05/18 02:57:20;;;;;;;8.30;3.73;;;;;;;19.79;61.74;101045.34;4909897;29;20211;-71
2022/05/18 02:59:49;;;;;;;8.87;3.80;;;;;;;19.77;61.99;101051.97;4911008;29;20699;-70
2022/05/18 03:02:17;;;;;;;7.37;4.57;;;;;;;19.69;61.83;101061.00;4912369;29;20749;-70
2022/05/18 03:04:46;;;;;;;8.53;3.90;;;;;;;19.71;61.62;101061.63;4916625;29;20300;-71
2022/05/18 03:07:14;;;;;;;7.47;3.90;;;;;;;19.68;61.80;101064.72;4909570;29;20327;-70
2022/05/18 03:09:42;;;;;;;6.77;3.73;;;;;;;19.67;61.89;101068.44;4913059;29;20209;-71
2022/05/18 03:12:11;;;;;;;7.80;4.03;;;;;;;19.71;61.57;101069.69;4909571;29;20243;-70
2022/05/18 03:14:38;;;;;;;9.83;3.93;;;;;;;19.65;61.54;101075.03;4909497;29;20225;-70
2022/05/18 03:17:06;;;;;;;8.07;4.47;;;;;;;19.58;61.41;101071.44;4910390;29;20366;-70
2022/05/18 03:19:34;;;;;;;6.63;3.93;;;;;;;19.49;62.05;101078.81;4912711;29;20259;-70
2022/05/18 03:24:50;;;;;;;6.87;4.30;;;;;;;19.43;62.27;101083.06;4912322;29;20590;-70
2022/05/18 03:27:17;;;;;;;11.10;4.13;;;;;;;19.41;62.36;101095.03;4914642;29;20332;-70
2022/05/18 03:29:45;;;;;;;6.67;3.90;;;;;;;19.39;62.07;101097.06;4909832;29;20304;-70
2022/05/18 03:32:13;;;;;;;7.50;4.20;;;;;;;19.36;62.59;101092.91;4907837;29;20244;-70
2022/05/18 03:34:41;;;;;;;8.50;4.87;;;;;;;19.37;62.26;101096.41;4909818;29;20207;-70
2022/05/18 03:37:10;;;;;;;4.57;3.80;;;;;;;19.35;62.19;101109.25;4912552;29;20307;-70
2022/05/18 03:39:37;;;;;;;7.63;4.47;;;;;;;19.34;62.28;101107.59;4909798;29;20709;-70
2022/05/18 03:42:07;;;;;;;9.03;4.20;;;;;;;19.26;62.72;101113.06;4911930;29;20598;-70
2022/05/18 03:44:34;;;;;;;6.60;4.20;;;;;;;19.22;62.88;101117.16;4908547;29;20307;-70
2022/05/18 03:47:02;;;;;;;7.40;4.33;;;;;;;19.24;62.57;101117.81;4909939;29;20244;-70
2022/05/18 03:49:30;;;;;;;6.17;4.13;;;;;;;19.27;62.37;101112.03;4912233;29;20239;-70
2022/05/18 03:51:58;;;;;;;7.53;3.70;;;;;;;19.28;62.95;101114.53;4909309;29;20259;-70
2022/05/18 03:54:28;;;;;;;9.20;4.67;;;;;;;19.22;62.76;101111.78;4913444;29;20211;-70
2022/05/18 03:56:55;;;;;;;7.77;4.20;;;;;;;19.14;63.23;101124.31;4909645;29;20243;-70
2022/05/18 03:59:24;;;;;;;11.90;4.83;;;;;;;19.10;63.40;101119.47;4912841;29;20593;-70
2022/05/18 04:01:52;;;;;;;11.53;4.40;;;;;;;19.08;63.63;101118.84;4914465;29;20318;-71
2022/05/18 04:04:20;;;;;;;9.00;3.87;;;;;;;19.12;63.22;101123.66;4909753;29;20272;-71
2022/05/18 04:06:48;;;;;;;12.10;4.60;;;;;;;19.17;63.50;101121.22;4914086;29;20219;-71
2022/05/18 04:09:17;;;;;;;7.73;4.73;;;;;;;19.21;63.13;101121.69;4911619;29;20209;-70
2022/05/18 04:11:47;;;;;;;7.10;4.50;;;;;;;19.23;62.42;101130.41;4910759;29;20730;-70
2022/05/18 04:14:14;;;;;;;6.90;4.63;;;;;;;19.16;63.35;101127.66;4908842;29;20229;-70
2022/05/18 04:16:48;;;;;;;7.97;4.57;;;;;;;19.18;63.28;101127.44;4913699;29;20247;-70
2022/05/18 04:19:17;;;;;;;11.07;5.20;;;;;;;19.24;63.26;101126.69;4913132;29;20208;-70
2022/05/18 04:21:45;;;;;;;7.90;4.97;;;;;;;19.24;63.06;101126.69;4906949;29;20216;-70
2022/05/18 04:24:12;;;;;;;6.97;4.50;;;;;;;19.22;63.59;101126.06;4912530;29;20252;-70
2022/05/18 04:26:40;;;;;;;8.97;5.70;;;;;;;19.25;63.43;101132.91;4908636;29;20311;-70
2022/05/18 04:29:09;;;;;;;9.93;4.97;;;;;;;19.21;63.36;101126.22;4912331;29;20228;-70
2022/05/18 04:31:37;;;;;;;13.10;5.83;;;;;;;19.10;64.23;101130.22;4908015;29;20359;-71
2022/05/18 04:34:05;;;;;;;10.77;6.50;;;;;;;19.11;64.62;101127.34;4910564;29;20245;-71
2022/05/18 04:36:32;;;;;;;9.13;5.23;;;;;;;19.17;64.55;101129.28;4909973;29;20996;-71
2022/05/18 04:39:00;;;;;;;9.17;5.37;;;;;;;19.24;64.10;101125.88;4909187;29;20670;-71
2022/05/18 04:41:28;;;;;;;7.93;5.63;;;;;;;19.30;64.10;101122.41;4907847;29;20213;-70
2022/05/18 04:43:56;;;;;;;12.63;5.60;;;;;;;19.31;63.95;101122.22;4908520;29;20291;-70
2022/05/18 04:46:25;;;;;;;11.50;6.37;;;;;;;19.38;64.11;101116.91;4914410;29;20212;-71
2022/05/18 04:48:52;;;;;;;25.93;7.37;;;;;;;19.41;64.01;101133.53;4907950;29;20228;-70
2022/05/18 04:51:20;;;;;;;18.37;6.07;;;;;;;19.44;64.50;101127.75;4907871;29;20216;-72
2022/05/18 04:53:48;;;;;;;9.57;5.67;;;;;;;19.45;64.44;101132.09;4909655;29;20204;-70
2022/05/18 04:56:16;;;;;;;8.67;5.73;;;;;;;19.48;64.52;101133.63;4910623;29;20212;-70
2022/05/18 04:58:44;;;;;;;10.27;6.03;;;;;;;19.53;64.40;101125.81;4908770;29;20674;-71
2022/05/18 05:01:11;;;;;;;17.90;6.43;;;;;;;19.59;64.31;101129.59;4910114;29;20209;-72
2022/05/18 05:03:41;;;;;;;13.50;6.40;;;;;;;19.64;64.32;101136.06;4908703;29;20227;-71
2022/05/18 05:06:08;;;;;;;8.90;5.80;;;;;;;19.68;64.65;101133.84;4914247;29;20413;-70
2022/05/18 05:08:37;;;;;;;10.23;5.60;;;;;;;19.67;64.71;101134.84;4911835;29;20331;-70
2022/05/18 05:11:07;;;;;;;12.87;6.13;;;;;;;19.71;64.57;101139.66;4916433;29;20216;-71
2022/05/18 05:13:35;;;;;;;8.03;6.00;;;;;;;19.76;64.71;101153.38;4913097;29;20315;-72
2022/05/18 05:16:05;;;;;;;15.90;6.90;;;;;;;19.80;64.56;101153.81;4907987;29;20307;-70
2022/05/18 05:18:34;;;;;;;11.40;6.30;;;;;;;19.81;64.78;101164.38;4914072;29;20379;-70
2022/05/18 05:21:03;;;;;;;11.13;6.13;;;;;;;19.81;64.92;101158.19;4911955;29;20327;-72
2022/05/18 05:23:34;;;;;;;8.87;5.20;;;;;;;19.84;64.89;101166.72;4914321;29;20263;-71
2022/05/18 05:26:02;;;;;;;10.60;6.37;;;;;;;19.91;64.73;101178.38;4914903;29;20217;-70
2022/05/18 05:28:30;;;;;;;13.67;6.50;;;;;;;19.95;64.27;101173.44;4915745;29;20232;-70
2022/05/18 05:31:02;;;;;;;12.87;6.20;;;;;;;19.99;64.09;101173.88;4912137;29;20224;-70
2022/05/18 05:33:30;;;;;;;9.03;6.30;;;;;;;20.01;64.51;101174.53;4919846;29;20251;-70
2022/05/18 05:35:58;;;;;;;11.47;6.70;;;;;;;20.06;65.06;101180.16;4922167;29;20642;-71
2022/05/18 05:38:28;;;;;;;13.37;7.00;;;;;;;20.10;64.51;101178.75;4927930;29;20215;-70
2022/05/18 05:40:59;;;;;;;15.33;7.03;;;;;;;20.13;64.86;101181.06;4917796;29;20275;-72
2022/05/18 05:43:27;;;;;;;12.90;7.90;;;;;;;20.15;64.67;101184.38;4912989;29;20214;-71
2022/05/18 05:45:56;;;;;;;16.17;7.43;;;;;;;20.21;64.84;101178.25;4914491;29;20670;-70
2022/05/18 05:48:25;;;;;;;12.10;6.93;;;;;;;20.24;64.64;101184.06;4909998;29;20260;-70
2022/05/18 05:50:52;;;;;;;17.07;7.80;;;;;;;20.26;64.91;101182.00;4920824;29;20212;-69
2022/05/18 05:53:20;;;;;;;11.87;7.20;;;;;;;20.34;64.58;101172.97;4921885;29;20333;-71
2022/05/18 05:55:50;;;;;;;12.97;7.03;;;;;;;20.37;64.75;101171.78;4914642;29;20955;-68
2022/05/18 05:58:18;;;;;;;14.80;8.00;;;;;;;20.41;64.96;101176.56;4913087;29;20528;-69
2022/05/18 06:00:46;;;;;;;12.33;7.43;;;;;;;20.47;64.66;101178.50;4911051;29;20212;-70
2022/05/18 06:03:15;;;;;;;12.93;7.07;;;;;;;20.52;64.71;101178.72;4912943;29;20220;-69
2022/05/18 06:05:43;;;;;;;26.40;7.57;;;;;;;20.55;64.91;101170.25;4915964;29;20583;-69
2022/05/18 06:08:11;;;;;;;12.23;7.47;;;;;;;20.60;64.20;101166.97;4910756;29;20240;-70
2022/05/18 06:10:39;;;;;;;11.53;7.33;;;;;;;20.65;64.07;101164.53;4916053;29;20263;-70
2022/05/18 06:13:10;;;;;;;17.93;7.83;;;;;;;20.71;64.29;101168.28;4913701;29;20228;-70
2022/05/18 06:15:38;;;;;;;16.67;7.43;;;;;;;20.74;64.30;101165.22;4913152;29;20339;-70
2022/05/18 06:18:06;;;;;;;13.13;7.17;;;;;;;20.75;64.14;101161.47;4915588;29;20213;-70
2022/05/18 06:20:35;;;;;;;14.03;7.20;;;;;;;20.80;64.31;101159.00;4916018;29;20649;-70
2022/05/18 06:23:06;;;;;;;12.40;6.67;;;;;;;20.82;64.40;101159.66;4915946;29;20280;-69
2022/05/18 06:25:34;;;;;;;11.87;5.60;;;;;;;20.87;64.21;101165.28;4917893;29;20258;-69
2022/05/18 06:28:02;;;;;;;9.73;5.20;;;;;;;20.92;63.26;101162.81;4913838;29;20212;-69
2022/05/18 06:30:32;;;;;;;9.30;5.10;;;;;;;20.96;63.96;101174.88;4911527;29;20308;-69
2022/05/18 06:33:00;;;;;;;11.57;5.60;;;;;;;21.01;62.86;101169.72;4913848;29;20247;-69
2022/05/18 06:35:27;;;;;;;13.73;6.13;;;;;;;21.06;63.19;101180.72;4914194;29;20235;-69
2022/05/18 06:37:55;;;;;;;10.70;5.57;;;;;;;21.10;62.57;101183.88;4910937;29;20360;-69
2022/05/18 06:41:21;;;;;;;8.27;4.70;;;;;;;21.15;62.02;101184.09;4912023;29;20360;-69
2022/05/18 06:43:11;;;;;;;12.10;6.47;;;;;;;21.20;62.21;101185.19;4916303;29;20219;-69
2022/05/18 06:45:41;;;;;;;9.60;5.17;;;;;;;21.27;61.86;101169.03;4909168;29;20209;-68
2022/05/18 06:48:09;;;;;;;13.43;6.30;;;;;;;21.33;61.33;101171.75;4912468;29;20700;-69
2022/05/18 06:50:57;;;;;;;16.00;4.73;;;;;;;21.42;60.53;101179.69;4912670;29;20635;-70
2022/05/18 06:53:25;;;;;;;11.57;4.97;;;;;;;21.47;60.19;101185.28;4916813;29;20217;-68
2022/05/18 06:55:52;;;;;;;16.20;5.13;;;;;;;21.50;60.65;101179.50;4911863;29;20300;-69
2022/05/18 06:58:31;;;;;;;12.93;5.27;;;;;;;21.52;60.89;101180.13;4918023;29;20240;-68
2022/05/18 07:01:01;;;;;;;12.00;4.60;;;;;;;21.53;60.98;101185.34;4915991;29;20216;-68
2022/05/18 07:03:29;;;;;;;15.73;5.37;;;;;;;21.54;60.86;101181.59;4912210;29;20284;-70
2022/05/18 07:05:58;;;;;;;11.17;4.60;;;;;;;21.57;61.19;101185.75;4911112;29;20201;-70
2022/05/18 07:08:25;;;;;;;12.43;4.97;;;;;;;21.62;60.73;101188.69;4916473;29;20218;-71
2022/05/18 07:10:53;;;;;;;12.33;4.83;;;;;;;21.66;60.89;101185.34;4911946;29;20213;-71
2022/05/18 07:13:21;;;;;;;15.23;5.00;;;;;;;21.78;59.75;101185.59;4909199;29;20638;-72
2022/05/18 07:15:49;;;;;;;20.43;5.13;;;;;;;21.90;59.31;101188.56;4915467;29;20216;-72
2022/05/18 07:18:19;;;;;;;9.07;4.60;;;;;;;21.92;59.89;101179.19;4913169;29;20212;-72
2022/05/18 07:20:49;;;;;;;17.67;4.50;;;;;;;21.95;58.47;101178.78;4909746;29;20600;-72
2022/05/18 07:23:16;;;;;;;8.70;3.80;;;;;;;21.99;58.49;101180.06;4910246;29;20617;-71
2022/05/18 07:25:44;;;;;;;11.00;3.90;;;;;;;22.08;57.62;101178.81;4913358;29;20725;-72
2022/05/18 07:28:12;;;;;;;9.33;4.00;;;;;;;22.10;58.00;101184.03;4917803;29;20215;-73
2022/05/18 07:30:49;;;;;;;10.83;4.47;;;;;;;22.13;58.68;101187.16;4908092;29;20216;-72
2022/05/18 07:33:20;;;;;;;11.67;4.50;;;;;;;22.24;57.13;101191.13;4913812;29;20272;-71
2022/05/18 07:35:50;;;;;;;9.32;4.03;;;;;;;22.60;54.10;101193.41;4910311;29;20208;-72
2022/05/18 07:38:19;;;;;;;8.00;3.80;;;;;;;22.44;55.21;101185.69;4906964;29;20213;-71
2022/05/18 07:41:05;;;;;;;9.45;4.82;;;;;;;22.42;55.28;101191.31;4909069;29;20220;-71
2022/05/18 07:43:33;;;;;;;9.63;4.10;;;;;;;22.45;54.93;101190.06;4907693;29;20299;-71
2022/05/18 07:46:01;;;;;;;8.98;4.00;;;;;;;22.47;55.42;101190.69;4915785;29;20284;-71
2022/05/18 07:48:30;;;;;;;12.93;4.90;;;;;;;22.49;56.09;101192.16;4911973;29;20313;-70
2022/05/18 07:50:58;;;;;;;9.40;4.13;;;;;;;22.50;56.29;101191.13;4910667;29;20248;-70
2022/05/18 07:53:27;;;;;;;8.00;4.38;;;;;;;22.69;55.90;101197.50;4911961;29;20217;-70
2022/05/18 07:55:55;;;;;;;9.82;4.93;;;;;;;22.74;55.21;101194.19;4909666;29;20233;-70
2022/05/18 07:58:23;;;;;;;9.40;4.72;;;;;;;22.83;55.06;101188.38;4916575;29;20240;-72
2022/05/18 08:00:51;;;;;;;8.45;4.32;;;;;;;23.05;54.06;101186.25;4908744;29;20280;-71
2022/05/18 08:03:19;;;;;;;10.30;3.97;;;;;;;23.09;54.10;101187.50;4908752;29;20295;-66
2022/05/18 08:05:48;;;;;;;10.50;4.80;;;;;;;23.32;53.52;101192.41;4918221;29;20308;-67
2022/05/18 08:08:18;;;;;;;11.20;4.25;;;;;;;23.41;53.01;101184.88;4908652;29;20232;-68
2022/05/18 08:16:18;;;;;;;11.35;4.70;;;;;;;23.82;52.30;101179.91;4916111;29;20295;-70
2022/05/18 08:18:48;;;;;;;15.38;4.85;;;;;;;23.81;52.45;101180.94;4913848;29;20689;-70
2022/05/18 08:21:17;;;;;;;9.40;3.90;;;;;;;23.91;53.07;101175.06;4912408;29;20590;-69
2022/05/18 08:23:46;;;;;;;11.75;4.47;;;;;;;24.12;52.63;101174.69;4911503;29;20732;-70
2022/05/18 08:26:20;;;;;;;9.95;4.45;;;;;;;24.12;52.19;101177.38;4914854;29;20234;-70
2022/05/18 08:28:48;;;;;;;7.28;3.80;;;;;;;24.16;51.35;101173.19;4913000;29;20288;-70
2022/05/18 08:31:17;;;;;;;10.60;4.32;;;;;;;24.19;51.73;101172.75;4913278;29;20686;-70
2022/05/18 08:33:45;;;;;;;9.05;4.07;;;;;;;24.30;51.57;101177.47;4912456;29;20233;-71
2022/05/18 08:36:13;;;;;;;10.18;4.75;;;;;;;24.42;51.21;101171.34;4918076;29;20674;-70
2022/05/18 08:38:42;;;;;;;13.73;3.83;;;;;;;24.41;49.73;101177.81;4911652;29;20243;-71
2022/05/18 08:41:13;;;;;;;8.80;4.20;;;;;;;24.51;49.74;101164.59;4916018;29;20215;-71
2022/05/18 08:43:44;;;;;;;11.77;4.15;;;;;;;24.60;49.83;101169.50;4913610;29;20251;-70
2022/05/18 08:46:15;;;;;;;10.90;3.88;;;;;;;24.80;50.26;101161.19;4905549;29;20212;-69
2022/05/18 08:48:54;;;;;;;13.23;4.40;;;;;;;24.77;51.50;101164.34;4919044;29;20221;-71
2022/05/18 08:51:39;;;;;;;10.20;4.75;;;;;;;24.84;50.02;101167.78;4917252;29;20323;-73
2022/05/18 08:54:24;;;;;;;8.82;5.00;;;;;;;25.14;47.62;101164.38;4915139;29;20308;-68
2022/05/18 08:56:54;;;;;;;7.45;3.70;;;;;;;25.00;49.16;101163.69;4909657;29;20221;-68
2022/05/18 08:59:34;;;;;;;8.50;3.58;;;;;;;25.28;45.13;101168.56;4911542;29;20229;-68
2022/05/18 09:02:10;;;;;;;9.10;3.33;;;;;;;25.37;45.52;101159.06;4911942;29;20212;-69
2022/05/18 09:04:49;;;;;;;9.40;4.00;;;;;;;25.41;46.16;101163.81;4910015;29;20223;-68
2022/05/18 09:07:42;;;;;;;6.25;3.33;;;;;;;25.48;46.02;101166.44;4906588;29;20236;-70
2022/05/18 09:10:23;;;;;;;8.25;3.55;;;;;;;25.53;46.49;101158.41;4907287;29;20821;-70
2022/05/18 09:12:54;;;;;;;4.80;2.78;;;;;;;25.68;44.20;101161.56;4911552;29;20267;-69
2022/05/18 09:15:35;;;;;;;8.75;3.25;;;;;;;25.67;45.39;101165.38;4908129;29;20595;-72
2022/05/18 09:18:21;;;;;;;8.20;3.25;;;;;;;25.68;45.39;101158.84;4913766;29;20213;-71
2022/05/18 09:20:53;;;;;;;9.32;3.20;;;;;;;25.68;45.19;101161.56;4908951;29;20232;-71
2022/05/18 09:23:44;;;;;;;7.38;3.15;;;;;;;26.08;42.46;101166.41;4911627;29;20291;-69
2022/05/18 09:26:27;;;;;;;6.10;3.10;;;;;;;25.84;43.73;101166.38;4909595;29;20303;-69
2022/05/18 09:29:05;;;;;;;8.68;3.40;;;;;;;25.81;45.09;101164.09;4915098;29;20313;-68
2022/05/18 09:31:52;;;;;;;6.57;2.95;;;;;;;26.06;41.07;101153.06;4914439;29;20662;-69
2022/05/18 09:34:36;;;;;;;9.43;2.83;;;;;;;26.04;42.85;101165.22;4912057;29;20249;-69
2022/05/18 09:37:26;;;;;;;5.40;3.05;;;;;;;26.06;43.20;101157.66;4911295;29;20675;-69
2022/05/18 09:40:01;;;;;;;10.07;3.00;;;;;;;26.20;42.77;101159.97;4909192;29;20235;-69
2022/05/18 09:42:37;;;;;;;5.97;2.88;;;;;;;26.19;43.55;101157.47;4909134;29;20232;-70
2022/05/18 09:45:09;;;;;;;5.35;2.78;;;;;;;26.31;43.21;101155.59;4911225;29;20212;-68
2022/05/18 09:47:41;;;;;;;5.57;3.00;;;;;;;26.64;41.56;101151.50;4913014;29;20287;-68
2022/05/18 09:50:18;;;;;;;6.05;3.40;;;;;;;26.77;41.48;101159.38;4912811;29;20689;-69
2022/05/18 09:52:47;;;;;;;8.15;3.25;;;;;;;26.72;42.56;101154.66;4915406;29;20220;-69
2022/05/18 09:55:20;;;;;;;8.68;3.08;;;;;;;26.94;41.10;101166.59;4912177;29;20295;-67
2022/05/18 09:57:59;;;;;;;9.10;2.83;;;;;;;26.89;40.96;101157.50;4908603;29;20213;-68
2022/05/18 10:00:31;;;;;;;6.70;2.90;;;;;;;26.95;39.25;101151.09;4908595;29;20307;-68
2022/05/18 10:08:56;;;;;;;5.00;2.95;;;;;;;26.93;39.88;101150.50;4912545;29;20746;-69
2022/05/18 10:11:30;;;;;;;9.27;2.90;;;;;;;27.17;39.24;101143.97;4913438;29;20327;-69
2022/05/18 10:14:06;;;;;;;5.75;2.38;;;;;;;27.33;37.60;101147.81;4912659;29;20355;-68
2022/05/18 10:16:40;;;;;;;7.97;2.90;;;;;;;27.29;40.06;101147.47;4912268;29;20199;-69
2022/05/18 10:19:17;;;;;;;7.93;2.55;;;;;;;27.34;40.23;101150.31;4913846;29;20311;-68
2022/05/18 10:21:52;;;;;;;28.48;4.32;;;;;;;27.55;39.32;101145.25;4915452;29;20636;-69
2022/05/18 10:24:27;;;;;;;9.60;2.67;;;;;;;27.41;41.17;101138.44;4913956;29;20558;-68
2022/05/18 10:27:21;;;;;;;8.38;3.53;;;;;;;27.31;40.97;101129.00;4912111;29;20745;-69
2022/05/18 10:30:02;;;;;;;10.73;2.33;;;;;;;27.37;39.95;101138.06;4909873;29;20220;-68
2022/05/18 10:32:31;;;;;;;4.85;2.22;;;;;;;27.53;39.21;101136.50;4913035;29;20705;-68
2022/05/18 10:35:01;;;;;;;7.13;2.33;;;;;;;27.53;39.87;101131.03;4904425;29;20214;-68
2022/05/18 10:37:32;;;;;;;54.55;5.93;;;;;;;27.47;39.41;101127.38;4915456;29;20335;-68
2022/05/18 10:40:04;;;;;;;5.97;2.53;;;;;;;27.43;40.53;101120.78;4910439;29;20679;-67
2022/05/18 10:42:44;;;;;;;6.15;2.67;;;;;;;27.39;39.67;101121.50;4901466;29;20221;-67
2022/05/18 10:45:35;;;;;;;5.95;2.58;;;;;;;27.38;39.99;101117.13;4915823;29;20212;-66
2022/05/18 10:48:16;;;;;;;5.78;2.58;;;;;;;27.43;38.19;101120.78;4919614;29;20346;-69
2022/05/18 10:50:45;;;;;;;12.38;2.80;;;;;;;27.42;37.89;101123.75;4913607;29;20240;-70
2022/05/18 10:53:29;;;;;;;6.60;2.53;;;;;;;27.40;38.22;101110.38;4917038;29;20308;-70
2022/05/18 10:56:04;;;;;;;4.47;2.33;;;;;;;27.32;39.28;101106.16;4916827;29;20208;-71
2022/05/18 10:58:35;;;;;;;4.60;2.50;;;;;;;27.35;39.34;101105.63;4918090;29;20263;-71
2022/05/18 11:01:09;;;;;;;4.07;2.25;;;;;;;27.44;37.40;101097.94;4913607;29;20275;-70
2022/05/18 11:03:44;;;;;;;7.78;2.00;;;;;;;27.50;37.82;101098.84;4919062;29;20635;-70
2022/05/18 11:06:17;;;;;;;8.48;2.75;;;;;;;27.66;36.66;101092.63;4920259;29;20319;-71
2022/05/18 11:08:48;;;;;;;8.25;2.53;;;;;;;27.80;36.88;101096.66;4923039;29;20302;-70
2022/05/18 11:11:29;;;;;;;3.67;1.90;;;;;;;27.94;36.85;101095.28;4914128;29;20713;-68
2022/05/18 11:14:12;;;;;;;3.95;1.95;;;;;;;27.98;36.19;101096.44;4915678;29;20236;-70
2022/05/18 11:16:50;;;;;;;6.32;2.40;;;;;;;27.94;35.70;101092.56;4920771;29;20223;-67
2022/05/18 11:19:40;;;;;;;5.35;2.13;;;;;;;27.94;35.72;101092.56;4916447;29;20701;-66
2022/05/18 11:22:30;;;;;;;9.02;2.38;;;;;;;28.05;35.58;101091.66;4915607;29;20224;-68
2022/05/18 11:25:20;;;;;;;4.90;2.05;;;;;;;28.04;34.84;101086.44;4917488;29;20300;-66
2022/05/18 11:28:19;;;;;;;6.13;2.28;;;;;;;28.16;36.13;101080.88;4918023;29;20224;-65
2022/05/18 11:30:52;;;;;;;5.63;1.98;;;;;;;28.16;35.08;101080.88;4917237;29;20208;-65
2022/05/18 11:33:31;;;;;;;8.20;2.00;;;;;;;28.25;35.00;101072.06;4918229;29;20263;-69
2022/05/18 11:36:18;;;;;;;4.70;2.10;;;;;;;28.41;34.76;101063.03;4913452;29;20212;-69
2022/05/18 11:39:06;;;;;;;5.90;2.55;;;;;;;28.58;33.99;101071.19;4912608;29;20204;-70
2022/05/18 11:41:59;;;;;;;5.22;2.10;;;;;;;28.53;32.77;101060.19;4915836;29;20241;-70
2022/05/18 11:44:42;;;;;;;4.40;1.77;;;;;;;28.72;34.39;101064.28;4909817;29;20216;-70
2022/05/18 11:47:52;;;;;;;2.92;1.75;;;;;;;28.67;34.22;101066.94;4914116;29;20205;-72
2022/05/18 11:50:32;;;;;;;5.72;1.98;;;;;;;28.73;32.61;101065.91;4912130;29;20754;-71
2022/05/18 11:53:15;;;;;;;3.67;1.63;;;;;;;28.61;32.67;101065.22;4909548;29;20242;-70
2022/05/18 11:55:57;;;;;;;8.40;2.20;;;;;;;28.56;31.94;101061.59;4908525;29;20234;-70
2022/05/18 11:58:47;;;;;;;5.05;1.67;;;;;;;28.49;32.86;101061.78;4910804;29;20678;-69
2022/05/18 12:01:25;;;;;;;4.40;2.00;;;;;;;28.47;34.11;101063.09;4907215;29;20217;-69